Time;durP1;ratioP1;P1;durP2;ratioP2;P2;SDS_P1;SDS_P2;PMS_P1;PMS_P2;Temp;Humidity;BMP_temperature;BMP_pressure;BME280_temperature;BME280_humidity;BME280_pressure;Samples;Min_cycle;Max_cycle;Signal;HPM_P1;HPM_P2
2021/04/08 04:15:13;;;;;;;10.77;4.38;;;;;;;1.76;81.73;99569.31;6020684;23;20010;-70
2021/04/08 04:17:38;;;;;;;7.57;4.57;;;;;;;1.74;81.52;99578.63;4972498;28;20442;-68
2021/04/08 04:20:05;;;;;;;6.20;4.05;;;;;;;1.65;79.69;99565.56;4973327;28;20034;-68
2021/04/08 04:22:32;;;;;;;7.55;4.82;;;;;;;1.48;80.73;99574.41;4973160;28;20035;-68
2021/04/08 04:24:57;;;;;;;7.00;4.57;;;;;;;1.42;80.16;99574.22;4973529;28;20117;-68
2021/04/08 04:27:23;;;;;;;10.85;5.00;;;;;;;1.62;81.38;99575.69;4973202;28;20029;-68
2021/04/08 04:29:48;;;;;;;7.50;4.40;;;;;;;1.52;80.36;99586.44;5011836;23;20031;-69
2021/04/08 04:32:15;;;;;;;8.88;4.63;;;;;;;1.88;77.40;99585.81;4943382;28;20090;-71
2021/04/08 04:34:41;;;;;;;10.43;5.32;;;;;;;1.59;78.42;99588.34;4993092;28;20027;-71
2021/04/08 04:37:07;;;;;;;11.80;5.18;;;;;;;1.69;78.36;99592.06;4992540;28;20038;-71
2021/04/08 04:39:32;;;;;;;8.55;4.97;;;;;;;1.54;78.05;99600.13;4992706;28;20030;-68
2021/04/08 04:41:58;;;;;;;12.25;5.60;;;;;;;1.68;77.23;99588.63;4992265;28;20073;-70
2021/04/08 04:44:24;;;;;;;9.75;5.28;;;;;;;1.64;78.00;99602.13;4992542;28;20018;-69
2021/04/08 04:46:51;;;;;;;10.45;5.35;;;;;;;1.62;79.97;99598.69;4992543;28;20081;-70
2021/04/08 04:49:16;;;;;;;7.13;4.93;;;;;;;1.45;78.41;99602.38;4992615;28;20439;-70
2021/04/08 04:51:41;;;;;;;9.85;5.57;;;;;;;1.38;76.60;99603.00;4992086;28;20045;-70
2021/04/08 04:54:07;;;;;;;11.50;5.07;;;;;;;1.47;74.83;99599.06;4992306;28;20150;-70
2021/04/08 04:56:32;;;;;;;9.05;4.63;;;;;;;1.64;74.61;99602.13;4992425;28;20026;-70
2021/04/08 04:58:57;;;;;;;9.13;5.13;;;;;;;1.69;73.10;99600.63;4992368;28;20030;-70
2021/04/08 05:01:23;;;;;;;7.18;4.63;;;;;;;1.75;71.95;99610.16;4992657;28;20054;-70
2021/04/08 05:03:48;;;;;;;8.20;4.63;;;;;;;1.74;73.43;99616.94;4992096;28;20023;-70
2021/04/08 05:06:13;;;;;;;8.15;4.20;;;;;;;2.01;73.88;99623.69;4992209;28;20023;-70
2021/04/08 05:08:39;;;;;;;9.10;4.72;;;;;;;2.10;71.11;99623.97;4991060;28;20034;-71
2021/04/08 05:11:04;;;;;;;8.25;4.07;;;;;;;2.23;69.73;99625.19;4992389;28;20084;-70
2021/04/08 05:13:29;;;;;;;8.27;4.63;;;;;;;2.07;70.86;99628.97;4993936;28;20053;-70
2021/04/08 05:15:55;;;;;;;8.90;5.05;;;;;;;2.36;71.21;99631.50;4996071;28;20022;-70
2021/04/08 05:18:20;;;;;;;7.60;4.70;;;;;;;2.24;71.82;99630.34;4995928;28;20023;-70
2021/04/08 05:20:45;;;;;;;7.30;5.20;;;;;;;2.31;72.68;99634.81;4995766;28;20037;-71
2021/04/08 05:23:11;;;;;;;16.90;4.78;;;;;;;2.33;72.53;99641.69;4995638;28;20033;-71
2021/04/08 05:25:36;;;;;;;10.30;5.32;;;;;;;2.46;73.30;99641.19;4995754;28;20026;-71
2021/04/08 05:28:01;;;;;;;9.00;4.93;;;;;;;2.70;71.74;99633.31;4994480;28;20018;-71
2021/04/08 05:30:27;;;;;;;10.98;5.43;;;;;;;2.64;69.60;99631.47;4995494;28;20442;-71
2021/04/08 05:32:52;;;;;;;10.15;4.68;;;;;;;2.72;69.19;99642.78;4995464;28;20072;-71
2021/04/08 05:35:18;;;;;;;7.78;4.05;;;;;;;2.71;68.79;99643.63;4995651;28;20041;-71
2021/04/08 05:37:44;;;;;;;8.82;4.20;;;;;;;2.75;68.74;99642.84;4995453;28;20026;-71
2021/04/08 05:40:10;;;;;;;7.72;4.53;;;;;;;2.87;68.68;99651.69;4995676;28;20076;-71
2021/04/08 05:42:35;;;;;;;12.27;4.38;;;;;;;2.78;68.60;99648.06;4995508;28;20089;-71
2021/04/08 05:45:00;;;;;;;10.35;4.32;;;;;;;2.83;69.36;99651.59;4995373;28;20022;-70
2021/04/08 05:47:26;;;;;;;7.68;4.47;;;;;;;2.74;69.70;99650.50;4995425;28;20025;-71
2021/04/08 05:49:52;;;;;;;9.77;4.70;;;;;;;3.09;69.55;99654.88;4995267;28;20054;-71
2021/04/08 05:52:17;;;;;;;8.27;4.45;;;;;;;3.29;70.63;99652.81;4995397;28;20038;-71
2021/04/08 05:54:43;;;;;;;10.95;4.75;;;;;;;3.13;69.52;99663.47;4995471;28;20049;-70
2021/04/08 05:57:08;;;;;;;9.70;4.20;;;;;;;3.43;69.03;99654.84;4995261;28;20018;-67
2021/04/08 05:59:33;;;;;;;11.88;4.82;;;;;;;3.67;68.33;99652.84;4995305;28;20031;-67
2021/04/08 06:01:59;;;;;;;13.93;5.03;;;;;;;3.72;69.04;99658.97;4994923;28;20386;-68
2021/04/08 06:04:24;;;;;;;13.23;5.35;;;;;;;3.66;68.10;99652.84;4992493;28;20028;-68
2021/04/08 06:06:49;;;;;;;9.20;5.10;;;;;;;3.62;68.86;99659.56;4979054;28;20364;-68
2021/04/08 06:09:15;;;;;;;11.18;5.32;;;;;;;3.89;67.20;99650.81;4999379;28;20113;-68
2021/04/08 06:11:40;;;;;;;7.03;5.90;;;;;;;3.72;68.11;99663.22;4979698;28;20419;-68
2021/04/08 06:14:05;;;;;;;8.07;4.55;;;;;;;3.83;67.96;99660.09;4975284;28;20050;-68
2021/04/08 06:16:31;;;;;;;6.15;4.45;;;;;;;3.79;68.80;99665.13;4973534;28;20536;-68
2021/04/08 06:18:56;;;;;;;8.30;4.20;;;;;;;3.88;67.43;99659.34;4974769;28;20027;-68
2021/04/08 06:21:22;;;;;;;9.50;3.80;;;;;;;3.95;67.59;99661.19;4973888;28;20031;-68
2021/04/08 06:23:47;;;;;;;11.20;4.20;;;;;;;4.28;66.13;99661.06;4974899;28;20400;-68
2021/04/08 06:26:12;;;;;;;7.68;4.18;;;;;;;4.27;66.61;99660.22;4974530;28;20101;-68
2021/04/08 06:28:38;;;;;;;9.65;4.00;;;;;;;4.44;64.77;99667.38;4974141;28;20455;-67
2021/04/08 06:31:03;;;;;;;9.43;4.05;;;;;;;4.41;61.85;99672.47;4974716;28;20066;-68
2021/04/08 06:33:28;;;;;;;12.02;5.07;;;;;;;4.35;61.41;99668.06;4974866;28;20114;-67
2021/04/08 06:35:54;;;;;;;8.10;4.35;;;;;;;4.54;61.07;99674.44;4974771;28;20058;-68
2021/04/08 06:38:19;;;;;;;15.55;4.30;;;;;;;4.51;59.75;99674.41;4975207;28;20023;-67
2021/04/08 06:40:45;;;;;;;10.15;4.28;;;;;;;4.39;58.48;99673.28;4990981;28;20031;-67
2021/04/08 06:43:11;;;;;;;5.90;4.20;;;;;;;4.33;60.40;99672.31;4974779;28;20023;-68
2021/04/08 06:45:39;;;;;;;10.32;4.55;;;;;;;4.41;60.11;99678.47;4974773;28;20031;-68
2021/04/08 06:48:21;;;;;;;7.88;4.35;;;;;;;4.97;57.94;99672.72;4974592;28;20022;-68
2021/04/08 06:50:50;;;;;;;10.05;4.57;;;;;;;4.71;56.83;99678.22;4974316;28;20033;-68
2021/04/08 06:53:16;;;;;;;12.77;4.82;;;;;;;5.12;56.03;99670.44;4973681;28;20027;-68
2021/04/08 06:55:42;;;;;;;12.07;4.03;;;;;;;5.27;55.21;99675.88;4974659;28;20032;-67
2021/04/08 06:58:08;;;;;;;10.15;4.03;;;;;;;5.35;52.73;99673.41;4973163;28;20027;-68
2021/04/08 07:00:34;;;;;;;13.48;4.80;;;;;;;6.73;49.01;99670.34;4974358;28;20026;-68
2021/04/08 07:03:01;;;;;;;9.80;4.57;;;;;;;8.53;44.98;99668.41;4973548;28;20109;-68
2021/04/08 07:05:27;;;;;;;11.25;3.88;;;;;;;8.22;45.16;99676.81;4982535;28;20018;-68
2021/04/08 07:07:52;;;;;;;9.02;4.78;;;;;;;8.62;42.87;99671.03;4979726;28;20038;-68
2021/04/08 07:10:17;;;;;;;9.60;3.80;;;;;;;9.14;42.08;99671.22;4974084;28;20027;-68
2021/04/08 07:12:43;;;;;;;8.45;3.65;;;;;;;8.92;41.98;99670.28;4990897;28;20055;-68
2021/04/08 07:15:09;;;;;;;9.18;4.00;;;;;;;10.37;38.43;99666.88;4973560;28;20046;-68
2021/04/08 07:17:35;;;;;;;10.27;3.67;;;;;;;10.64;38.35;99674.56;4988843;28;20029;-68
2021/04/08 07:20:00;;;;;;;8.25;4.70;;;;;;;10.61;38.82;99673.72;4975954;28;20552;-68
2021/04/08 07:22:26;;;;;;;9.90;3.80;;;;;;;10.71;36.81;99676.25;4990250;28;20049;-68
2021/04/08 07:24:53;;;;;;;16.67;4.00;;;;;;;11.85;35.25;99670.38;5003494;28;20022;-68
2021/04/08 07:27:33;;;;;;;8.80;3.47;;;;;;;11.21;36.28;99687.22;4987510;28;20038;-68
2021/04/08 07:30:00;;;;;;;8.13;3.75;;;;;;;11.48;33.94;99688.81;4973653;28;20026;-68
2021/04/08 07:32:26;;;;;;;7.70;3.50;;;;;;;11.47;34.21;99687.09;4973914;28;20019;-69
2021/04/08 07:35:01;;;;;;;15.82;4.22;;;;;;;12.30;34.24;99684.66;4973865;28;20030;-68
2021/04/08 07:37:34;;;;;;;7.10;3.85;;;;;;;12.11;33.63;99689.16;4973436;28;20034;-68
2021/04/08 07:40:16;;;;;;;7.82;3.55;;;;;;;12.21;33.57;99690.81;4974430;28;20031;-68
2021/04/08 07:42:41;;;;;;;7.40;3.35;;;;;;;11.47;33.82;99703.50;4973563;28;20033;-68
2021/04/08 07:45:08;;;;;;;13.68;3.88;;;;;;;10.40;35.77;99709.19;4992543;28;20113;-68
2021/04/08 07:47:35;;;;;;;8.43;3.80;;;;;;;10.40;34.61;99704.00;4984860;28;20463;-68
2021/04/08 07:50:06;;;;;;;7.70;3.58;;;;;;;9.92;34.87;99705.75;5000800;28;20394;-68
2021/04/08 07:52:35;;;;;;;8.35;3.28;;;;;;;10.53;34.29;99705.66;4973274;28;20023;-68
2021/04/08 07:55:06;;;;;;;6.30;3.58;;;;;;;9.84;34.75;99712.66;4973453;28;20122;-68
2021/04/08 07:57:49;;;;;;;8.93;3.40;;;;;;;10.81;33.40;99710.78;4973698;28;20031;-68
2021/04/08 08:00:21;;;;;;;5.32;3.28;;;;;;;10.68;32.85;99709.94;4976951;28;20077;-68
2021/04/08 08:02:46;;;;;;;6.05;3.13;;;;;;;11.55;33.24;99711.22;4991772;28;20101;-68
2021/04/08 08:05:17;;;;;;;8.15;3.75;;;;;;;8.92;36.28;99721.97;4992623;28;20113;-68
2021/04/08 08:07:45;;;;;;;6.72;3.42;;;;;;;11.63;32.10;99714.63;4989708;28;20082;-67
2021/04/08 08:10:15;;;;;;;13.35;3.70;;;;;;;9.50;34.14;99728.16;4992511;28;20065;-67
2021/04/08 08:12:41;;;;;;;6.07;2.83;;;;;;;8.80;35.54;99732.22;4992123;28;20034;-67
2021/04/08 08:15:18;;;;;;;6.57;3.28;;;;;;;9.32;34.75;99733.28;4985190;28;20034;-67
2021/04/08 08:17:44;;;;;;;8.23;3.47;;;;;;;10.03;33.48;99723.88;4973230;28;20497;-67
2021/04/08 08:20:10;;;;;;;10.60;3.20;;;;;;;12.22;30.80;99715.03;4990274;28;20109;-67
2021/04/08 08:22:38;;;;;;;6.30;2.90;;;;;;;12.78;28.61;99711.00;4971735;28;20023;-67
2021/04/08 08:25:05;;;;;;;6.90;3.10;;;;;;;13.65;26.87;99708.97;4972342;28;20023;-67
2021/04/08 08:27:57;;;;;;;5.70;3.10;;;;;;;12.66;28.03;99721.50;4972352;28;20064;-67
2021/04/08 08:30:32;;;;;;;6.78;3.22;;;;;;;11.63;29.62;99731.94;4980998;28;20046;-68
2021/04/08 08:33:01;;;;;;;7.50;2.90;;;;;;;13.01;28.62;99719.38;4977819;28;21434;-67
2021/04/08 08:35:26;;;;;;;8.80;3.42;;;;;;;13.64;26.60;99705.50;4977703;28;20041;-67
2021/04/08 08:37:54;;;;;;;7.38;3.15;;;;;;;15.81;23.92;99701.25;4982705;28;20030;-67
2021/04/08 08:40:20;;;;;;;4.05;3.10;;;;;;;15.86;24.03;99701.13;4982115;28;20038;-66
2021/04/08 08:42:46;;;;;;;5.95;2.92;;;;;;;14.96;24.75;99713.56;4981192;28;20224;-67
2021/04/08 08:45:12;;;;;;;7.20;3.00;;;;;;;11.37;30.05;99740.78;4980052;28;20103;-66
2021/04/08 08:47:39;;;;;;;6.20;3.20;;;;;;;10.01;32.35;99742.00;4982107;28;20141;-68
2021/04/08 08:50:15;;;;;;;9.48;4.43;;;;;;;8.08;34.25;99745.56;4985240;28;20041;-68
2021/04/08 08:52:43;;;;;;;10.02;3.72;;;;;;;6.94;37.28;99755.59;4986530;28;20037;-67
2021/04/08 08:55:15;;;;;;;7.40;3.35;;;;;;;6.81;36.85;99753.69;4974344;28;20026;-67
2021/04/08 08:57:43;;;;;;;6.78;3.30;;;;;;;9.25;33.51;99740.16;4982680;28;20049;-67
2021/04/08 09:00:09;;;;;;;4.95;2.92;;;;;;;9.25;33.23;99734.13;4985639;28;20041;-67
2021/04/08 09:02:35;;;;;;;5.00;3.40;;;;;;;9.00;34.18;99741.81;4987304;28;20121;-67
2021/04/08 09:05:03;;;;;;;7.13;3.90;;;;;;;7.78;36.28;99751.31;4981382;28;20038;-67
2021/04/08 09:07:29;;;;;;;6.43;4.13;;;;;;;6.85;39.23;99748.59;4982096;28;20038;-67
2021/04/08 09:09:59;;;;;;;7.50;4.20;;;;;;;6.69;39.89;99751.84;4982164;28;20022;-67
2021/04/08 09:12:26;;;;;;;3.78;3.42;;;;;;;6.54;40.39;99752.50;4986279;28;20458;-67
2021/04/08 09:14:55;;;;;;;12.77;5.22;;;;;;;6.65;40.34;99750.06;4982703;28;20038;-67
2021/04/08 09:17:40;;;;;;;9.02;5.05;;;;;;;7.01;41.06;99744.53;4986340;28;20026;-67
2021/04/08 09:20:07;;;;;;;11.52;4.40;;;;;;;7.32;40.01;99739.69;4980911;28;20172;-67
2021/04/08 09:22:33;;;;;;;9.23;5.00;;;;;;;7.98;39.18;99729.16;4983283;28;20030;-67
2021/04/08 09:24:58;;;;;;;6.68;4.05;;;;;;;8.13;38.88;99732.69;4984393;28;20031;-69
2021/04/08 09:27:24;;;;;;;15.98;6.25;;;;;;;7.14;40.16;99748.09;4982981;28;20057;-67
2021/04/08 09:29:55;;;;;;;7.60;4.20;;;;;;;7.33;39.13;99744.88;4981003;28;20041;-67
2021/04/08 09:32:47;;;;;;;20.80;7.05;;;;;;;6.63;41.28;99741.47;4985523;28;20069;-67
2021/04/08 09:35:15;;;;;;;12.88;5.10;;;;;;;8.49;37.91;99732.94;4980886;28;20034;-67
2021/04/08 09:37:47;;;;;;;9.30;4.72;;;;;;;8.35;38.65;99729.38;4985534;28;20072;-67
2021/04/08 09:40:21;;;;;;;8.32;4.22;;;;;;;8.03;39.66;99725.75;4980799;28;20629;-67
2021/04/08 09:42:53;;;;;;;9.65;6.03;;;;;;;7.37;41.35;99736.31;4983075;28;20026;-67
2021/04/08 09:45:19;;;;;;;12.00;4.78;;;;;;;7.00;41.42;99747.06;4986445;28;20034;-67
2021/04/08 09:47:44;;;;;;;13.93;5.05;;;;;;;6.72;41.74;99739.00;4984536;28;20101;-66
2021/04/08 09:50:10;;;;;;;14.50;4.25;;;;;;;6.30;42.79;99742.72;4980190;28;20161;-66
2021/04/08 09:53:02;;;;;;;14.32;5.65;;;;;;;5.98;44.85;99739.63;4982362;28;20499;-66
2021/04/08 09:55:32;;;;;;;7.28;4.03;;;;;;;6.37;43.64;99738.50;4983638;28;20553;-66
2021/04/08 09:58:02;;;;;;;15.55;5.20;;;;;;;5.97;43.60;99737.91;4985108;28;20022;-66
2021/04/08 10:00:28;;;;;;;12.55;5.90;;;;;;;5.50;44.99;99737.06;4979309;28;20065;-66
2021/04/08 10:03:00;;;;;;;11.43;4.60;;;;;;;5.03;46.44;99731.91;4983617;28;20106;-66
2021/04/08 10:05:37;;;;;;;9.07;4.47;;;;;;;5.47;47.03;99737.03;4979026;28;20026;-66
2021/04/08 10:08:03;;;;;;;9.18;5.05;;;;;;;5.78;46.62;99729.00;4983626;28;21291;-67
2021/04/08 10:10:43;;;;;;;10.93;4.22;;;;;;;5.78;46.70;99741.84;4980627;28;20041;-67
2021/04/08 10:13:29;;;;;;;12.23;5.35;;;;;;;6.41;46.00;99740.28;4982475;28;20026;-67
2021/04/08 10:15:56;;;;;;;14.77;4.65;;;;;;;7.39;43.04;99732.03;4980468;28;20022;-67
2021/04/08 10:18:33;;;;;;;9.50;5.32;;;;;;;7.36;43.68;99726.00;4980076;28;20542;-67
2021/04/08 10:21:02;;;;;;;14.80;6.03;;;;;;;6.12;46.34;99732.13;4980519;28;20022;-67
2021/04/08 10:23:37;;;;;;;9.27;4.97;;;;;;;5.62;48.11;99729.59;4981328;28;20058;-71
2021/04/08 10:26:05;;;;;;;7.40;4.70;;;;;;;5.33;48.76;99727.38;4983339;28;20034;-70
2021/04/08 10:28:54;;;;;;;11.05;4.85;;;;;;;5.83;47.74;99732.50;4979935;28;20061;-71
2021/04/08 10:31:20;;;;;;;7.80;4.47;;;;;;;6.45;46.71;99726.63;4985901;28;20594;-69
2021/04/08 10:33:47;;;;;;;9.35;4.20;;;;;;;6.53;47.00;99724.16;4979203;28;20087;-70
2021/04/08 10:36:27;;;;;;;6.82;4.15;;;;;;;6.79;46.47;99727.94;4984620;28;20427;-70
2021/04/08 10:39:17;;;;;;;14.00;4.72;;;;;;;7.83;44.20;99718.72;4982075;28;20105;-71
2021/04/08 10:42:05;;;;;;;7.25;4.03;;;;;;;7.48;44.51;99715.78;4980344;28;20529;-70
2021/04/08 10:45:06;;;;;;;9.48;4.15;;;;;;;7.89;42.68;99700.69;4983403;28;20492;-71
2021/04/08 10:47:33;;;;;;;6.25;4.25;;;;;;;8.08;43.07;99698.25;4972371;28;20042;-70
2021/04/08 10:50:01;;;;;;;9.73;4.50;;;;;;;6.98;44.78;99718.72;4984830;28;20037;-70
2021/04/08 10:52:34;;;;;;;9.98;4.80;;;;;;;7.65;43.22;99718.53;4983631;28;20034;-71
2021/04/08 10:55:02;;;;;;;13.10;4.75;;;;;;;8.33;42.20;99700.13;4985667;28;20029;-70
2021/04/08 10:57:29;;;;;;;12.77;4.70;;;;;;;8.14;43.03;99703.44;4977669;28;20391;-71
2021/04/08 10:59:55;;;;;;;11.02;5.00;;;;;;;8.10;42.14;99706.84;4979600;28;20061;-70
2021/04/08 11:02:25;;;;;;;12.20;4.80;;;;;;;8.11;41.81;99706.84;4983657;28;20041;-71
2021/04/08 11:04:52;;;;;;;7.60;4.03;;;;;;;8.77;40.65;99702.09;4982412;28;20109;-70
2021/04/08 11:07:18;;;;;;;8.25;4.85;;;;;;;8.69;40.65;99703.78;4981445;28;20043;-71
2021/04/08 11:09:44;;;;;;;11.13;4.80;;;;;;;8.94;40.95;99703.00;4983226;28;20037;-71
2021/04/08 11:12:25;;;;;;;6.43;4.43;;;;;;;9.24;39.03;99703.97;4979155;28;21038;-71
2021/04/08 11:14:56;;;;;;;5.55;3.97;;;;;;;9.68;38.73;99698.00;4985087;28;20053;-71
2021/04/08 11:17:23;;;;;;;8.43;4.63;;;;;;;9.43;38.26;99695.38;4980905;28;20105;-71
2021/04/08 11:19:52;;;;;;;8.32;4.18;;;;;;;9.43;38.74;99697.97;4983575;28;21042;-70
2021/04/08 11:22:22;;;;;;;10.15;4.18;;;;;;;8.82;40.56;99705.56;4978992;28;20034;-71
2021/04/08 11:24:49;;;;;;;12.77;4.75;;;;;;;8.04;42.18;99707.69;4984890;28;20038;-71
2021/04/08 11:27:24;;;;;;;17.70;5.50;;;;;;;8.03;42.68;99703.38;4980005;28;20030;-71
2021/04/08 11:29:51;;;;;;;13.20;4.80;;;;;;;8.45;41.82;99697.63;4966351;28;20026;-71
2021/04/08 11:32:17;;;;;;;10.55;4.30;;;;;;;8.23;41.16;99703.50;4982505;28;20038;-71
2021/04/08 11:34:43;;;;;;;11.80;5.07;;;;;;;8.08;41.08;99704.28;4981017;28;20030;-72
2021/04/08 11:37:11;;;;;;;8.85;4.05;;;;;;;8.41;40.67;99695.00;4981188;28;21011;-72
2021/04/08 11:39:36;;;;;;;7.28;4.57;;;;;;;9.32;39.24;99691.91;4984504;28;20030;-71
2021/04/08 11:42:14;;;;;;;8.00;4.30;;;;;;;11.10;35.49;99686.44;4978494;28;20597;-71
2021/04/08 11:44:39;;;;;;;7.80;4.80;;;;;;;10.17;37.39;99687.59;4983272;28;20066;-71
2021/04/08 11:47:17;;;;;;;9.32;4.55;;;;;;;10.08;38.03;99683.31;4980996;28;20118;-71
2021/04/08 11:49:46;;;;;;;13.73;6.18;;;;;;;9.66;38.38;99686.75;4984156;28;20033;-71
2021/04/08 11:52:13;;;;;;;10.02;5.47;;;;;;;7.92;41.08;99687.78;4981462;28;20496;-71
2021/04/08 11:54:57;;;;;;;9.00;4.63;;;;;;;11.30;35.23;99674.22;4982822;28;20690;-70
2021/04/08 11:57:23;;;;;;;7.13;5.28;;;;;;;13.38;31.42;99661.63;4977934;28;20030;-71
2021/04/08 11:59:49;;;;;;;6.47;4.95;;;;;;;15.36;28.61;99650.91;4984179;28;20093;-71
2021/04/08 12:02:27;;;;;;;6.57;4.07;;;;;;;15.85;27.79;99647.13;4978225;28;20034;-72
2021/04/08 12:04:53;;;;;;;9.90;4.10;;;;;;;15.71;28.25;99644.00;4984078;28;20040;-72
2021/04/08 12:07:19;;;;;;;10.07;4.30;;;;;;;15.01;28.53;99652.56;4983449;28;20145;-72
2021/04/08 12:09:45;;;;;;;12.45;4.03;;;;;;;14.48;30.15;99649.31;4984256;28;20125;-71
2021/04/08 12:12:12;;;;;;;6.85;3.95;;;;;;;12.78;32.61;99658.97;4978233;28;20073;-71
2021/04/08 12:14:57;;;;;;;11.50;4.68;;;;;;;12.30;34.22;99661.28;4984013;28;20037;-71
2021/04/08 12:17:24;;;;;;;13.88;4.90;;;;;;;11.58;33.79;99656.72;4971720;28;20041;-71
2021/04/08 12:19:49;;;;;;;7.82;4.85;;;;;;;10.54;36.10;99655.59;4980778;28;20033;-71
2021/04/08 12:22:15;;;;;;;8.70;4.85;;;;;;;9.94;37.59;99652.25;4977346;28;20030;-71
2021/04/08 12:25:01;;;;;;;8.68;4.72;;;;;;;8.62;40.07;99660.69;4979853;28;20030;-71
2021/04/08 12:27:26;;;;;;;15.13;4.88;;;;;;;8.39;39.71;99658.84;4980064;28;20030;-71
2021/04/08 12:29:52;;;;;;;7.05;5.40;;;;;;;8.03;40.77;99656.06;4982406;28;20373;-71
2021/04/08 12:32:26;;;;;;;8.85;4.80;;;;;;;9.37;40.02;99643.63;4982277;28;20145;-71
2021/04/08 12:34:52;;;;;;;9.90;4.97;;;;;;;9.89;39.07;99648.81;4979090;28;20037;-71
2021/04/08 12:37:17;;;;;;;11.63;5.28;;;;;;;10.40;37.09;99636.66;4980191;28;20096;-71
2021/04/08 12:39:42;;;;;;;8.35;3.72;;;;;;;11.46;34.07;99618.75;4983686;28;20030;-71
2021/04/08 12:42:08;;;;;;;7.80;4.10;;;;;;;11.14;36.60;99618.13;4976724;28;20491;-72
2021/04/08 12:44:34;;;;;;;15.05;4.47;;;;;;;10.64;35.02;99619.28;4983634;28;20073;-72
2021/04/08 12:46:59;;;;;;;9.90;4.43;;;;;;;10.19;36.78;99631.47;4980702;28;20030;-72
2021/04/08 12:49:24;;;;;;;14.88;4.38;;;;;;;9.41;38.77;99609.16;4980299;28;20026;-68
2021/04/08 12:51:49;;;;;;;9.80;5.32;;;;;;;8.32;40.04;99639.00;4977887;28;20038;-68
2021/04/08 12:54:15;;;;;;;8.57;4.78;;;;;;;8.77;39.15;99634.91;4983134;28;20030;-69
2021/04/08 12:56:40;;;;;;;12.57;4.90;;;;;;;8.85;38.61;99630.63;4981157;28;20035;-69
2021/04/08 12:59:05;;;;;;;12.73;4.43;;;;;;;9.43;38.88;99625.56;4977719;28;20030;-69
2021/04/08 13:01:31;;;;;;;8.88;4.80;;;;;;;8.87;38.51;99631.50;4977391;28;20141;-68
2021/04/08 13:03:56;;;;;;;7.45;4.32;;;;;;;8.57;40.72;99636.56;4978030;28;20050;-68
2021/04/08 13:06:21;;;;;;;6.93;4.38;;;;;;;8.91;38.48;99625.47;4977352;28;20508;-68
2021/04/08 13:08:47;;;;;;;7.45;4.47;;;;;;;9.50;38.50;99614.31;4981132;28;20491;-68
2021/04/08 13:11:12;;;;;;;11.68;4.05;;;;;;;9.52;37.38;99620.38;4979993;28;20069;-68
2021/04/08 13:13:37;;;;;;;10.93;5.05;;;;;;;8.83;38.10;99624.59;4981313;28;20499;-68
2021/04/08 13:16:03;;;;;;;9.93;4.57;;;;;;;8.96;40.00;99620.31;4981705;28;20488;-68
2021/04/08 13:18:28;;;;;;;6.43;4.40;;;;;;;9.38;36.91;99606.59;4977602;28;20069;-69
2021/04/08 13:20:53;;;;;;;9.95;4.30;;;;;;;8.64;38.88;99608.16;4979762;28;20189;-69
2021/04/08 13:23:19;;;;;;;9.07;4.80;;;;;;;8.96;38.73;99610.84;4977680;28;20045;-69
2021/04/08 13:25:44;;;;;;;7.82;4.32;;;;;;;8.90;38.42;99610.84;4980849;28;20037;-69
2021/04/08 13:28:10;;;;;;;15.73;5.22;;;;;;;7.81;40.90;99612.03;4976408;28;20039;-69
2021/04/08 13:30:35;;;;;;;10.20;5.35;;;;;;;7.64;40.76;99608.47;4981005;28;20389;-69
2021/04/08 13:33:01;;;;;;;11.98;5.05;;;;;;;8.43;39.73;99593.47;4980033;28;20037;-69
2021/04/08 13:35:26;;;;;;;11.00;4.80;;;;;;;8.72;39.70;99593.56;4986577;28;20030;-69
2021/04/08 13:37:53;;;;;;;10.48;4.25;;;;;;;9.60;37.71;99583.28;4980488;28;20038;-69
2021/04/08 13:40:20;;;;;;;7.47;4.35;;;;;;;9.45;37.29;99585.00;4980015;28;20380;-69
2021/04/08 13:42:46;;;;;;;8.38;3.97;;;;;;;9.41;37.51;99583.28;4985741;28;20034;-67
2021/04/08 13:45:12;;;;;;;6.78;4.10;;;;;;;8.99;38.46;99576.38;4985015;28;20046;-68
2021/04/08 13:47:38;;;;;;;7.75;3.47;;;;;;;9.61;36.36;99574.66;4984443;28;20644;-68
2021/04/08 13:50:06;;;;;;;7.15;3.10;;;;;;;9.60;36.87;99562.59;4980694;28;20026;-67
2021/04/08 13:52:31;;;;;;;5.75;3.35;;;;;;;9.71;37.09;99571.19;4984552;28;20506;-67
2021/04/08 13:54:57;;;;;;;7.63;3.03;;;;;;;10.11;35.13;99582.31;4986642;28;20117;-68
2021/04/08 13:57:24;;;;;;;5.93;3.20;;;;;;;9.77;37.07;99578.97;4980479;28;20396;-68
2021/04/08 13:59:49;;;;;;;7.78;4.05;;;;;;;9.84;35.76;99572.03;4977497;28;20030;-68
2021/04/08 14:02:14;;;;;;;5.35;3.42;;;;;;;9.86;34.92;99570.28;4978579;28;20100;-69
2021/04/08 14:04:40;;;;;;;6.18;3.15;;;;;;;8.93;37.40;99561.72;4984008;28;20030;-69
2021/04/08 14:07:05;;;;;;;5.05;2.88;;;;;;;9.74;35.89;99566.00;4983047;28;20060;-68
2021/04/08 14:09:31;;;;;;;5.72;2.63;;;;;;;9.90;36.54;99551.31;4983425;28;20034;-69
2021/04/08 14:11:56;;;;;;;5.45;2.78;;;;;;;9.55;36.45;99549.66;4985368;28;20526;-69
2021/04/08 14:14:21;;;;;;;8.77;2.78;;;;;;;9.73;35.76;99548.75;4984721;28;20026;-69
2021/04/08 14:16:47;;;;;;;6.45;3.33;;;;;;;10.09;35.27;99539.16;4950554;28;20053;-69
2021/04/08 14:19:12;;;;;;;16.63;3.58;;;;;;;9.88;36.56;99542.69;4946678;29;20129;-68
2021/04/08 14:21:39;;;;;;;5.13;2.78;;;;;;;10.15;34.75;99531.34;4947128;28;20063;-69
2021/04/08 14:24:05;;;;;;;6.65;2.97;;;;;;;9.43;35.39;99539.34;4947051;29;20090;-68
2021/04/08 14:26:30;;;;;;;4.93;2.80;;;;;;;9.35;36.40;99531.56;4944446;29;20572;-68
2021/04/08 14:28:58;;;;;;;7.78;3.25;;;;;;;9.33;35.90;99533.31;4944193;29;20090;-69
2021/04/08 14:31:25;;;;;;;7.43;2.70;;;;;;;9.07;36.58;99535.03;4945252;28;20046;-69
2021/04/08 14:33:50;;;;;;;5.32;2.70;;;;;;;9.08;37.33;99531.56;4941047;29;20119;-68
2021/04/08 14:36:16;;;;;;;3.72;2.70;;;;;;;8.93;37.80;99535.88;4942271;28;20027;-68
2021/04/08 14:38:41;;;;;;;4.65;3.08;;;;;;;9.53;35.91;99528.97;4944042;28;20035;-68
2021/04/08 14:41:06;;;;;;;4.18;2.60;;;;;;;10.61;34.55;99520.81;4942498;28;20030;-68
2021/04/08 14:43:32;;;;;;;6.80;3.00;;;;;;;10.16;34.40;99525.34;4942528;28;20035;-69
2021/04/08 14:45:57;;;;;;;12.38;2.92;;;;;;;9.89;36.03;99514.19;4944993;28;20086;-68
2021/04/08 14:48:23;;;;;;;5.40;3.10;;;;;;;10.38;34.76;99524.38;4944771;29;20066;-68
2021/04/08 14:50:48;;;;;;;7.43;2.83;;;;;;;9.49;35.40;99527.25;4942945;28;20035;-68
2021/04/08 14:53:13;;;;;;;10.15;2.90;;;;;;;9.18;36.79;99522.94;4946096;28;20106;-68
2021/04/08 14:55:39;;;;;;;6.15;2.50;;;;;;;9.16;36.74;99524.69;4944191;28;20474;-69
2021/04/08 14:58:04;;;;;;;5.50;2.72;;;;;;;8.91;36.50;99523.81;4939451;28;20060;-68
2021/04/08 15:00:30;;;;;;;3.92;2.67;;;;;;;9.05;36.56;99510.91;4938567;28;20034;-67
2021/04/08 15:02:55;;;;;;;9.35;2.83;;;;;;;8.96;35.91;99507.47;4939161;29;20536;-69
2021/04/08 15:05:21;;;;;;;10.15;3.95;;;;;;;9.34;36.13;99505.72;4942092;28;20445;-68
2021/04/08 15:07:47;;;;;;;7.43;2.60;;;;;;;9.67;36.14;99502.19;4945792;28;20027;-69
2021/04/08 15:10:16;;;;;;;7.30;2.33;;;;;;;10.20;34.50;99499.41;4941633;29;20031;-69
2021/04/08 15:12:42;;;;;;;7.78;3.35;;;;;;;10.46;34.83;99491.53;4945746;29;20027;-68
2021/04/08 15:15:10;;;;;;;5.63;2.50;;;;;;;10.09;33.27;99496.00;4940194;29;20481;-68
2021/04/08 15:17:36;;;;;;;4.82;3.33;;;;;;;10.20;34.50;99501.13;4946254;29;20053;-68
2021/04/08 15:20:04;;;;;;;5.32;2.20;;;;;;;10.30;34.03;99495.09;4945246;29;20035;-69
2021/04/08 15:22:29;;;;;;;5.97;3.17;;;;;;;10.18;34.14;99495.09;4939971;29;20027;-69
2021/04/08 15:24:55;;;;;;;8.30;4.40;;;;;;;10.11;33.70;99498.59;4940090;28;20039;-69
2021/04/08 15:27:20;;;;;;;5.63;2.53;;;;;;;10.21;34.97;99495.97;4945858;29;20396;-69
2021/04/08 15:29:46;;;;;;;3.40;2.63;;;;;;;9.85;34.39;99480.56;4946111;28;20077;-68
2021/04/08 15:32:12;;;;;;;9.13;3.90;;;;;;;10.03;34.60;99486.53;4945695;28;20042;-67
2021/04/08 15:34:37;;;;;;;6.72;2.83;;;;;;;9.97;34.84;99481.38;4942122;28;20027;-68
2021/04/08 15:37:02;;;;;;;7.07;2.63;;;;;;;9.94;33.83;99476.22;4939874;28;20031;-68
2021/04/08 15:39:28;;;;;;;3.83;2.63;;;;;;;9.85;34.49;99475.38;4939783;28;20537;-66
2021/04/08 15:41:53;;;;;;;5.95;3.25;;;;;;;9.66;35.49;99478.03;4944885;29;20031;-67
2021/04/08 15:44:19;;;;;;;5.63;3.10;;;;;;;9.69;34.87;99479.78;4946122;28;20035;-68
2021/04/08 15:46:44;;;;;;;26.67;12.55;;;;;;;9.87;35.23;99469.34;4945950;28;20118;-68
2021/04/08 15:49:09;;;;;;;4.50;2.92;;;;;;;9.66;35.72;99465.09;4945681;29;20023;-67
2021/04/08 15:51:35;;;;;;;5.15;2.60;;;;;;;9.70;36.11;99465.97;4943824;29;20051;-66
2021/04/08 15:54:00;;;;;;;5.25;2.90;;;;;;;9.55;36.01;99458.25;4945473;29;20039;-67